Latest Coastal Weather Observations for Edithburgh

IDS60701

Issued at 3:01 am CST Thursday 3 September 2015 (issued every 10 minutes, with the page automatically refreshed every 10 minutes)

About coastal observations | Map of coastal stations | Coastal observations for SA | Marine services | Other Formats
Station Details ID: 022046 Name: EDITHBURGH Lat: -35.11 Lon: 137.74 Height: 6.0 m
Data from the previous 72 hours. | See also: Recent months at Edithburgh
Date/Time
CST
Temp

°C
Wind Pressure Rain
since 9am
mm
Weather Cloud Vis
km
Sea
Height
m
Swell
Dir
 
Speed
knots
Gust
knots
hPa Trend Height
m
Period
s
Dir
03/03:00am 11.9 SW 7 9 1013.8 - 10.4 - - - - - - -
03/02:30am 11.8 SW 9 12 1013.6 - 10.4 - - - - - - -
03/02:00am 11.6 SW 10 15 1013.3 - 10.4 - - - - - - -
03/01:30am 12.1 SSW 12 16 1012.8 - 10.4 - - - - - - -
03/01:00am 11.8 SSW 12 16 1012.5 - 10.4 - - - - - - -
03/12:30am 12.2 SSW 12 17 1012.5 - 10.4 - - - - - - -
03/12:00am 12.1 SSW 13 17 1012.2 - 10.4 - - - - - - -
 
Date/Time
CST
Temp

°C
Wind Pressure Rain
since 9am
mm
Weather Cloud Vis
km
Sea
Height
m
Swell
Dir
 
Speed
knots
Gust
knots
hPa Trend Height
m
Period
s
Dir
02/11:30pm 12.0 SW 12 19 1011.8 - 10.4 - - - - - - -
02/11:00pm 12.2 SW 14 19 1011.4 - 10.4 - - - - - - -
02/10:30pm 11.8 SSW 10 15 1010.6 - 10.4 - - - - - - -
02/10:00pm 11.9 SSW 10 13 1009.7 - 10.4 - - - - - - -
02/09:30pm 11.9 S 11 16 1009.3 - 10.4 - - - - - - -
02/09:00pm 11.6 S 11 16 1008.8 - 10.4 - - - - - - -
02/08:30pm 11.8 S 13 20 1008.4 - 10.4 - - - - - - -
02/08:00pm 11.7 S 15 22 1007.3 - 10.4 - - - - - - -
02/07:30pm 11.5 S 13 18 1006.3 - 10.4 - - - - - - -
02/07:00pm 11.6 S 15 21 1005.3 - 10.4 - - - - - - -
02/06:30pm 11.3 S 15 21 1004.3 - 10.4 - - - - - - -
02/06:00pm 11.1 S 16 22 1003.5 - 10.4 Recent precip. - - - - - -
02/05:30pm 11.5 SSE 16 22 1002.3 - 10.4 - - - - - - -
02/05:06pm 11.2 S 16 26 1001.3 - 9.6 - - - - - - -
02/05:00pm 11.6 S 13 19 1001.1 - 9.6 - - - - - - -
02/04:30pm 12.4 ENE 3 5 1000.0 - 9.4 - - - - - - -
02/04:00pm 12.3 ENE 7 10 999.4 - 9.4 - - - - - - -
02/03:30pm 12.2 NE 11 14 998.9 - 9.2 - - - - - - -
02/03:00pm 11.8 NE 11 15 998.7 - 8.8 Rain - - - - - -
02/02:30pm 11.6 NNE 8 13 998.8 - 7.2 - - - - - - -
02/02:00pm 12.2 NNE 8 13 999.0 - 7.2 - - - - - - -
02/01:30pm 11.2 N 10 15 999.4 - 6.8 - - - - - - -
02/01:00pm 10.9 N 10 16 1000.0 - 6.2 - - - - - - -
02/12:30pm 10.8 NNE 10 18 1000.6 - 4.8 - - - - - - -
02/12:00pm 10.6 N 9 16 1001.4 - 3.4 Rain - - - - - -
02/11:30am 11.0 N 9 15 1001.9 - 2.2 - - - - - - -
02/11:00am 11.5 N 8 11 1002.3 - 1.6 - - - - - - -
02/10:30am 12.1 N 16 23 1002.6 - 1.6 - - - - - - -
02/10:00am 11.8 N 13 19 1002.8 - 1.6 - - - - - - -
02/09:30am 11.6 N 16 23 1003.1 - 0.2 - - - - - - -
02/09:00am 13.7 N 14 21 1003.2 - 6.0 - - - - - - -
02/08:30am 12.5 N 11 16 1003.3 - 6.0 - - - - - - -
02/08:00am 11.3 N 9 15 1003.5 - 6.0 - - - - - - -
02/07:30am 10.6 N 8 13 1003.5 - 6.0 - - - - - - -
02/07:00am 10.2 N 8 12 1003.4 - 6.0 - - - - - - -
02/06:30am 10.3 N 9 13 1003.5 - 6.0 - - - - - - -
02/06:00am 10.4 N 9 13 1003.5 - 6.0 - - - - - - -
02/05:30am 10.5 N 9 13 1003.6 - 6.0 - - - - - - -
02/05:00am 10.8 N 7 12 1003.7 - 6.0 - - - - - - -
02/04:30am 11.2 N 8 11 1003.6 - 6.0 - - - - - - -
02/04:00am 11.4 N 7 11 1003.6 - 6.0 - - - - - - -
02/03:30am 11.6 N 8 13 1004.0 - 6.0 - - - - - - -
02/03:00am 11.6 NNE 7 11 1004.2 - 6.0 - - - - - - -
02/02:30am 11.6 N 6 9 1004.5 - 6.0 - - - - - - -
02/02:00am 11.7 N 8 13 1005.0 - 6.0 - - - - - - -
02/01:30am 11.6 N 11 15 1005.7 - 6.0 - - - - - - -
02/01:00am 11.8 N 11 18 1005.2 - 6.0 - - - - - - -
02/12:30am 11.4 N 8 11 1006.0 - 6.0 - - - - - - -
02/12:00am 11.5 N 6 10 1006.1 - 6.0 Recent precip. - - - - - -
 
Date/Time
CST
Temp

°C
Wind Pressure Rain
since 9am
mm
Weather Cloud Vis
km
Sea
Height
m
Swell
Dir
 
Speed
knots
Gust
knots
hPa Trend Height
m
Period
s
Dir
01/11:30pm 11.5 N 8 12 1006.4 - 6.0 - - - - - - -
01/11:00pm 12.0 N 8 12 1006.6 - 4.8 - - - - - - -
01/10:30pm 12.3 N 9 15 1006.5 - 4.2 - - - - - - -
01/10:00pm 13.0 N 11 19 1006.8 - 3.8 - - - - - - -
01/09:30pm 14.0 NNE 8 13 1006.3 - 3.8 - - - - - - -
01/09:00pm 14.0 NNE 8 12 1006.5 - 3.6 - - - - - - -
01/08:30pm 13.4 NNE 7 10 1006.5 - 3.6 - - - - - - -
01/08:00pm 12.9 NNE 4 6 1006.1 - 3.6 - - - - - - -
01/07:30pm 13.1 NNE 6 7 1006.3 - 3.2 - - - - - - -
01/07:00pm 13.0 N 7 11 1006.5 - 3.2 - - - - - - -
01/06:30pm 13.4 NNE 7 11 1006.2 - 2.6 - - - - - - -
01/06:00pm 13.2 N 10 14 1006.9 - 2.4 Recent precip. - - - - - -
01/05:30pm 13.5 N 10 15 1007.2 - 1.6 - - - - - - -
01/05:00pm 14.3 NE 10 13 1006.7 - 1.2 - - - - - - -
01/04:30pm 13.8 ENE 8 10 1006.9 - 1.2 - - - - - - -
01/04:00pm 13.6 ENE 6 9 1007.3 - 1.2 - - - - - - -
01/03:30pm 13.0 NNE 7 11 1007.9 - 1.0 - - - - - - -
01/03:00pm 14.4 N 6 8 1008.3 - 0.0 - - - - - - -
01/02:30pm 14.9 N 9 17 1008.4 - 0.0 - - - - - - -
01/02:00pm 16.5 N 11 15 1008.5 - 0.0 - - - - - - -
01/01:30pm 15.6 NNE 6 9 1008.7 - 0.0 - - - - - - -
01/01:00pm 15.5 NNE 9 14 1009.2 - 0.0 - - - - - - -
01/12:30pm 14.8 NNE 8 13 1009.5 - 0.0 - - - - - - -
01/12:00pm 15.7 NE 9 15 1010.0 - 0.0 - - - - - - -
01/11:30am 14.6 NE 8 11 1010.6 - 0.0 - - - - - - -
01/11:00am 14.9 NNE 7 12 1011.2 - 0.0 - - - - - - -
01/10:30am 14.5 NE 6 10 1011.5 - 0.0 - - - - - - -
01/10:00am 13.7 NE 6 8 1011.8 - 0.0 - - - - - - -
01/09:30am 13.8 NE 7 10 1011.9 - 0.0 - - - - - - -
01/09:00am 14.3 NE 6 10 1012.2 - 0.4 - - - - - - -
01/08:30am 13.5 NE 6 9 1012.2 - 0.4 - - - - - - -
01/08:00am 13.4 NE 8 10 1012.1 - 0.4 - - - - - - -
01/07:30am 12.7 NE 6 8 1012.1 - 0.4 - - - - - - -
01/07:00am 12.6 NE 5 7 1012.3 - 0.4 - - - - - - -
01/06:30am 12.5 NNE 4 5 1012.1 - 0.4 - - - - - - -
01/06:00am 12.4 NNE 5 8 1011.9 - 0.4 - - - - - - -
01/05:30am 12.1 NNE 6 9 1012.1 - 0.4 - - - - - - -
01/05:00am 12.4 NNE 7 11 1011.9 - 0.4 - - - - - - -
01/04:30am 12.7 N 7 10 1011.8 - 0.0 - - - - - - -
01/04:00am 12.4 NNE 6 9 1011.8 - 0.0 - - - - - - -
01/03:30am 12.6 NNE 7 10 1012.2 - 0.0 - - - - - - -
01/03:00am 12.5 NNE 7 10 1012.5 - 0.0 - - - - - - -
01/02:30am 12.3 NNE 8 13 1013.0 - 0.0 - - - - - - -
01/02:00am 12.4 NNE 7 11 1013.5 - 0.0 - - - - - - -
01/01:30am 12.3 NE 6 9 1013.8 - 0.0 - - - - - - -
01/01:00am 12.2 NE 8 10 1014.1 - 0.0 - - - - - - -
01/12:30am 12.4 NE 8 11 1014.2 - 0.0 - - - - - - -
01/12:00am 13.0 NE 7 9 1014.6 - 0.0 - - - - - - -
 
Date/Time
CST
Temp

°C
Wind Pressure Rain
since 9am
mm
Weather Cloud Vis
km
Sea
Height
m
Swell
Dir
 
Speed
knots
Gust
knots
hPa Trend Height
m
Period
s
Dir
31/11:30pm 11.9 ENE 6 7 1014.8 - 0.0 - - - - - - -
31/11:00pm 12.2 NE 6 8 1015.3 - 0.0 - - - - - - -
31/10:30pm 13.0 NNE 5 7 1015.6 - 0.0 - - - - - - -
31/10:00pm 13.8 ENE 8 10 1015.7 - 0.0 - - - - - - -
31/09:30pm 13.8 ENE 7 9 1016.0 - 0.0 - - - - - - -
31/09:00pm 14.0 ENE 8 11 1016.0 - 0.0 - - - - - - -
31/08:30pm 13.7 ENE 9 11 1016.0 - 0.0 - - - - - - -
31/08:00pm 13.4 ENE 8 11 1016.0 - 0.0 - - - - - - -
31/07:30pm 13.2 E 8 10 1016.1 - 0.0 - - - - - - -
31/07:00pm 12.3 E 7 9 1016.1 - 0.0 - - - - - - -
31/06:30pm 11.6 E 5 7 1016.1 - 0.0 - - - - - - -
31/06:00pm 11.8 E 4 5 1016.1 - 0.0 - - - - - - -
31/05:30pm 13.1 ENE 4 5 1016.2 - 0.0 - - - - - - -
31/05:00pm 13.9 NE 6 8 1016.2 - 0.0 - - - - - - -
31/04:30pm 14.3 NE 8 10 1016.2 - 0.0 - - - - - - -
31/04:00pm 14.4 ENE 7 11 1016.7 - 0.0 - - - - - - -
31/03:30pm 14.4 ENE 9 11 1016.8 - 0.0 - - - - - - -
31/03:00pm 14.3 ENE 8 10 1017.1 - 0.0 - - - - - - -
31/02:30pm 14.0 ENE 9 10 1017.5 - 0.0 - - - - - - -
31/02:00pm 14.2 ENE 8 10 1017.9 - 0.0 - - - - - - -
31/01:30pm 14.6 NE 8 10 1018.3 - 0.0 - - - - - - -
31/01:00pm 14.2 NE 9 11 1018.6 - 0.0 - - - - - - -
31/12:30pm 14.3 NE 8 11 1019.1 - 0.0 - - - - - - -
31/12:00pm 13.8 NE 8 9 1019.6 - 0.0 - - - - - - -
31/11:30am 13.7 NE 8 11 1020.0 - 0.0 - - - - - - -
31/11:00am 14.0 NE 7 9 1020.2 - 0.0 - - - - - - -
31/10:30am 13.4 NNE 6 9 1020.5 - 0.0 - - - - - - -
31/10:00am 13.3 NE 6 9 1020.6 - 0.0 - - - - - - -
31/09:30am 13.3 NNE 6 9 1020.8 - 0.0 - - - - - - -
31/09:00am 13.1 NNE 5 7 1020.9 - 0.0 - - - - - - -
31/08:30am 12.7 NNE 5 8 1020.8 - 0.0 - - - - - - -
31/08:00am 12.3 NE 6 9 1020.6 - 0.0 - - - - - - -
31/07:30am 9.7 NE 5 6 1020.4 - 0.0 - - - - - - -
31/07:00am 6.7 NNE 4 5 1020.4 - 0.0 - - - - - - -
31/06:30am 5.6 NNE 1 2 1020.3 - 0.0 - - - - - - -
31/06:00am 5.2 N 4 4 1020.4 - 0.0 - - - - - - -
31/05:57am 5.5 N 4 5 1020.4 - 0.0 - - - - - - -
31/05:30am 10.6 NNE 6 7 1020.4 - 0.0 - - - - - - -
31/05:00am 10.4 NE 7 9 1020.5 - 0.0 - - - - - - -
31/04:30am 10.6 NE 8 10 1020.5 - 0.0 - - - - - - -
31/04:00am 10.3 NE 7 9 1020.6 - 0.0 - - - - - - -
31/03:30am 10.8 NE 7 10 1020.7 - 0.0 - - - - - - -

Other Formats:

Comma delimited format used in spreadsheet applications
http://www.bom.gov.au/fwo/IDS60701/IDS60701.94809.axf

JavaScript Object Notation format (JSON) in row-major order
http://www.bom.gov.au/fwo/IDS60701/IDS60701.94809.json